Time;durP1;ratioP1;P1;durP2;ratioP2;P2;SDS_P1;SDS_P2;PMS_P1;PMS_P2;Temp;Humidity;BMP_temperature;BMP_pressure;BME280_temperature;BME280_humidity;BME280_pressure;Samples;Min_cycle;Max_cycle;Signal;HPM_P1;HPM_P2
2022/03/30 00:01:22;;;;;;;21.60;10.45;;;10.30;99.90;;;;;;5097043;28;20024;-64
2022/03/30 00:03:48;;;;;;;26.75;10.30;;;10.30;99.90;;;;;;5096648;28;20038;-64
2022/03/30 00:06:13;;;;;;;20.90;11.57;;;10.30;99.90;;;;;;5095592;28;20024;-65
2022/03/30 00:08:39;;;;;;;18.55;10.43;;;10.20;99.90;;;;;;5096826;28;20077;-64
2022/03/30 00:11:05;;;;;;;19.67;10.48;;;10.20;99.90;;;;;;5112564;28;20501;-63
2022/03/30 00:13:49;;;;;;;20.00;11.07;;;10.20;99.90;;;;;;5095617;28;20024;-64
2022/03/30 00:16:15;;;;;;;16.98;9.25;;;10.20;99.90;;;;;;5096855;28;20075;-63
2022/03/30 00:18:40;;;;;;;19.42;10.48;;;10.20;99.90;;;;;;5096609;28;20067;-64
2022/03/30 00:21:06;;;;;;;21.75;10.20;;;10.20;99.90;;;;;;5095519;28;20032;-64
2022/03/30 00:23:32;;;;;;;17.70;9.82;;;10.20;99.90;;;;;;5096416;28;20024;-64
2022/03/30 00:25:58;;;;;;;15.40;9.60;;;10.20;99.90;;;;;;5096671;28;20032;-64
2022/03/30 00:28:27;;;;;;;19.15;10.00;;;10.20;99.90;;;;;;5096478;28;20037;-65
2022/03/30 00:30:53;;;;;;;16.75;9.35;;;10.20;99.90;;;;;;5097033;28;20111;-64
2022/03/30 00:33:19;;;;;;;16.10;9.85;;;10.20;99.90;;;;;;5095098;28;20032;-64
2022/03/30 00:35:46;;;;;;;14.50;9.57;;;10.20;99.90;;;;;;5096371;28;20027;-64
2022/03/30 00:38:12;;;;;;;18.30;9.98;;;10.20;99.90;;;;;;5094903;28;20036;-64
2022/03/30 00:40:37;;;;;;;20.05;10.63;;;10.20;99.90;;;;;;5094940;28;20475;-64
2022/03/30 00:43:03;;;;;;;18.20;9.85;;;10.10;99.90;;;;;;5095974;28;20024;-64
2022/03/30 00:45:29;;;;;;;19.88;9.23;;;10.10;99.90;;;;;;5096570;28;20024;-64
2022/03/30 00:47:54;;;;;;;18.92;10.30;;;10.10;99.90;;;;;;5094959;28;20024;-64
2022/03/30 00:50:22;;;;;;;19.65;10.38;;;10.20;99.90;;;;;;5095772;28;20046;-63
2022/03/30 00:52:50;;;;;;;17.33;10.43;;;10.20;99.90;;;;;;5094797;28;20032;-64
2022/03/30 00:55:17;;;;;;;16.60;10.18;;;10.10;99.90;;;;;;5096063;28;20444;-64
2022/03/30 00:57:45;;;;;;;20.63;10.65;;;10.20;99.90;;;;;;5093528;28;20036;-64
2022/03/30 01:00:14;;;;;;;20.37;11.00;;;10.20;99.90;;;;;;5095875;28;20024;-65
2022/03/30 01:02:43;;;;;;;16.85;9.52;;;10.20;99.90;;;;;;5095847;28;20024;-64
2022/03/30 01:05:09;;;;;;;19.77;10.57;;;10.20;99.90;;;;;;5095769;28;20035;-63
2022/03/30 01:07:35;;;;;;;18.67;10.70;;;10.30;99.90;;;;;;5095848;28;20476;-65
2022/03/30 01:10:03;;;;;;;16.42;11.00;;;10.30;99.90;;;;;;5095679;28;20460;-64
2022/03/30 01:12:31;;;;;;;18.40;10.73;;;10.30;99.90;;;;;;5095920;28;20111;-63
2022/03/30 01:14:58;;;;;;;16.20;9.93;;;10.30;99.90;;;;;;5094332;28;20384;-65
2022/03/30 01:17:24;;;;;;;19.02;10.00;;;10.30;99.90;;;;;;5095651;28;20441;-65
2022/03/30 01:19:50;;;;;;;16.90;10.27;;;10.30;99.90;;;;;;5094149;28;20118;-64
2022/03/30 01:22:17;;;;;;;18.80;11.02;;;10.30;99.90;;;;;;5095389;28;20040;-64
2022/03/30 01:24:42;;;;;;;17.02;10.25;;;10.20;99.90;;;;;;5095115;28;20073;-64
2022/03/30 01:27:08;;;;;;;14.30;9.57;;;10.20;99.90;;;;;;5095073;28;20387;-64
2022/03/30 01:32:25;;;;;;;16.52;10.07;;;10.00;99.90;;;;;;5095761;28;20066;-64
2022/03/30 01:37:36;;;;;;;20.35;9.65;;;9.80;99.90;;;;;;5095354;28;20039;-65
2022/03/30 01:40:05;;;;;;;26.35;10.85;;;9.70;99.90;;;;;;5095464;28;20024;-64
2022/03/30 01:42:31;;;;;;;17.17;10.23;;;9.60;99.90;;;;;;5093963;28;20081;-64
2022/03/30 01:44:57;;;;;;;16.33;9.95;;;9.50;99.90;;;;;;5094756;28;20028;-64
2022/03/30 01:47:24;;;;;;;19.52;10.10;;;9.40;99.90;;;;;;5094964;28;20119;-63
2022/03/30 01:49:50;;;;;;;19.30;10.70;;;9.30;99.90;;;;;;5093600;28;20031;-64
2022/03/30 01:52:16;;;;;;;20.13;10.88;;;9.30;99.90;;;;;;5095157;28;20103;-64
2022/03/30 01:54:43;;;;;;;19.75;10.95;;;9.20;99.90;;;;;;5093802;28;20366;-64
2022/03/30 01:57:12;;;;;;;19.13;10.90;;;9.10;99.90;;;;;;5093427;28;20400;-64
2022/03/30 01:59:38;;;;;;;19.15;10.85;;;9.00;99.90;;;;;;5093494;28;20085;-63
2022/03/30 02:02:04;;;;;;;18.90;11.38;;;8.90;99.90;;;;;;5094732;28;20024;-64
2022/03/30 02:04:31;;;;;;;20.98;11.30;;;8.80;99.90;;;;;;5093395;28;20024;-64
2022/03/30 02:06:57;;;;;;;19.60;11.15;;;8.70;99.90;;;;;;5093525;28;20388;-64
2022/03/30 02:09:23;;;;;;;20.02;11.35;;;8.60;99.90;;;;;;5094258;28;20050;-64
2022/03/30 02:11:50;;;;;;;18.63;10.40;;;8.60;99.90;;;;;;5094533;28;20452;-63
2022/03/30 02:14:16;;;;;;;17.60;10.55;;;8.60;99.90;;;;;;5093185;28;20059;-63
2022/03/30 02:16:41;;;;;;;19.38;10.60;;;8.50;99.90;;;;;;5093910;28;20400;-64
2022/03/30 02:19:07;;;;;;;17.80;10.30;;;8.50;99.90;;;;;;5094198;28;20044;-63
2022/03/30 02:21:34;;;;;;;18.33;9.95;;;8.40;99.90;;;;;;5094079;28;20074;-64
2022/03/30 02:24:00;;;;;;;22.73;11.25;;;8.30;99.90;;;;;;5094200;28;20020;-63
2022/03/30 02:26:27;;;;;;;17.65;10.02;;;8.30;99.90;;;;;;5094567;28;20077;-63
2022/03/30 02:28:54;;;;;;;23.02;10.70;;;8.30;99.90;;;;;;5094368;28;20111;-64
2022/03/30 02:31:21;;;;;;;17.92;9.98;;;8.20;99.90;;;;;;5093463;28;20110;-64
2022/03/30 02:33:47;;;;;;;19.15;10.50;;;8.20;99.90;;;;;;5094439;28;20043;-64
2022/03/30 02:36:14;;;;;;;20.05;9.95;;;8.20;99.90;;;;;;5092577;28;20028;-63
2022/03/30 02:38:41;;;;;;;20.58;10.60;;;8.10;99.90;;;;;;5092703;28;20032;-63
2022/03/30 02:41:08;;;;;;;20.80;11.40;;;8.10;99.90;;;;;;5093818;28;20484;-63
2022/03/30 02:43:34;;;;;;;19.77;10.80;;;8.10;99.90;;;;;;5092748;28;20024;-63
2022/03/30 02:46:00;;;;;;;21.60;10.85;;;8.10;99.90;;;;;;5094232;28;20020;-64
2022/03/30 02:48:28;;;;;;;18.33;10.45;;;8.10;99.90;;;;;;5092727;28;20487;-64
2022/03/30 02:51:05;;;;;;;21.15;11.13;;;8.10;99.90;;;;;;5109657;28;20020;-64
2022/03/30 02:53:32;;;;;;;20.52;10.07;;;8.10;99.90;;;;;;5094016;28;20080;-64
2022/03/30 02:55:58;;;;;;;16.52;9.93;;;8.10;99.90;;;;;;5092675;28;20032;-63
2022/03/30 02:58:24;;;;;;;21.67;11.57;;;8.10;99.90;;;;;;5093851;28;20020;-63
2022/03/30 03:00:50;;;;;;;21.48;11.27;;;8.10;99.90;;;;;;5092612;28;20024;-63
2022/03/30 03:03:16;;;;;;;27.40;12.25;;;8.10;99.90;;;;;;5092645;28;20115;-63
2022/03/30 03:05:42;;;;;;;23.33;10.88;;;8.10;99.90;;;;;;5093885;28;20047;-64
2022/03/30 03:08:11;;;;;;;26.55;11.30;;;8.10;99.90;;;;;;5093848;28;20488;-63
2022/03/30 03:10:38;;;;;;;19.27;11.15;;;8.10;99.90;;;;;;5093848;28;20020;-63
2022/03/30 03:13:04;;;;;;;20.85;11.27;;;8.10;99.90;;;;;;5093916;28;20024;-63
2022/03/30 03:15:32;;;;;;;23.63;11.98;;;8.10;99.90;;;;;;5092332;28;20048;-64
2022/03/30 03:17:58;;;;;;;18.92;10.98;;;8.00;99.90;;;;;;5093932;28;20024;-64
2022/03/30 03:20:27;;;;;;;21.05;11.35;;;8.00;99.90;;;;;;5095399;28;20051;-64
2022/03/30 03:22:54;;;;;;;27.00;12.88;;;8.00;99.90;;;;;;5097894;28;20035;-63
2022/03/30 03:25:20;;;;;;;18.48;11.32;;;8.00;99.90;;;;;;5097704;28;20020;-64
2022/03/30 03:27:47;;;;;;;21.55;11.05;;;8.10;99.90;;;;;;5097956;28;20028;-64
2022/03/30 03:30:14;;;;;;;22.63;10.95;;;8.00;99.90;;;;;;5097771;28;20456;-63
2022/03/30 03:32:40;;;;;;;20.35;11.70;;;8.00;99.90;;;;;;5097557;28;20035;-64
2022/03/30 03:35:09;;;;;;;25.85;12.48;;;8.00;99.90;;;;;;5096278;28;20433;-64
2022/03/30 03:37:38;;;;;;;27.33;11.05;;;8.00;99.90;;;;;;5096470;28;20170;-65
2022/03/30 03:40:04;;;;;;;;;;;8.00;99.90;;;;;;5096914;28;20364;-63
2022/03/30 03:42:30;;;;;;;24.27;11.00;;;8.00;99.90;;;;;;5097460;28;19910;-64
2022/03/30 03:44:55;;;;;;;17.60;10.93;;;8.00;99.90;;;;;;5096045;28;20023;-63
2022/03/30 03:47:21;;;;;;;23.05;11.02;;;8.00;99.90;;;;;;5097266;28;20039;-65
2022/03/30 03:49:47;;;;;;;22.15;11.15;;;8.00;99.90;;;;;;5097196;28;20024;-64
2022/03/30 03:52:12;;;;;;;23.63;11.27;;;7.90;99.90;;;;;;5096200;28;20020;-67
2022/03/30 03:54:38;;;;;;;20.60;11.10;;;7.90;99.90;;;;;;5095942;28;20476;-65
2022/03/30 03:57:04;;;;;;;22.80;12.10;;;7.90;99.90;;;;;;5095855;28;20168;-64
2022/03/30 03:59:30;;;;;;;25.73;11.23;;;7.90;99.90;;;;;;5096837;28;20032;-64
2022/03/30 04:01:55;;;;;;;20.20;11.32;;;7.80;99.90;;;;;;5097025;28;20111;-64
2022/03/30 04:04:21;;;;;;;18.15;10.95;;;7.70;99.90;;;;;;5097003;28;20077;-63
2022/03/30 04:06:47;;;;;;;19.70;11.38;;;7.70;99.90;;;;;;5095934;28;20081;-63
2022/03/30 04:09:12;;;;;;;23.05;13.25;;;7.70;99.90;;;;;;5096608;28;20024;-63
2022/03/30 04:11:38;;;;;;;19.90;11.07;;;7.60;99.90;;;;;;5096812;28;20028;-64
2022/03/30 04:14:04;;;;;;;21.92;11.50;;;7.60;99.90;;;;;;5095478;28;20031;-64
2022/03/30 04:16:29;;;;;;;26.70;11.57;;;7.60;99.90;;;;;;5096922;28;20075;-64
2022/03/30 04:18:55;;;;;;;25.45;12.60;;;7.60;99.90;;;;;;5095419;28;20046;-64
2022/03/30 04:21:21;;;;;;;25.05;11.82;;;7.60;99.90;;;;;;5096916;28;20111;-64
2022/03/30 04:23:47;;;;;;;21.15;10.90;;;7.60;99.90;;;;;;5095381;28;20024;-65
2022/03/30 04:26:13;;;;;;;24.30;11.95;;;7.60;99.90;;;;;;5095311;28;20452;-64
2022/03/30 04:28:41;;;;;;;21.08;11.43;;;7.60;99.90;;;;;;5096661;28;20032;-64
2022/03/30 04:31:08;;;;;;;23.38;11.07;;;7.60;99.90;;;;;;5095135;28;20456;-64
2022/03/30 04:33:34;;;;;;;22.20;11.82;;;7.70;99.90;;;;;;5096384;28;20024;-64
2022/03/30 04:36:00;;;;;;;21.77;10.95;;;7.60;99.90;;;;;;5096651;28;20073;-64
2022/03/30 04:38:26;;;;;;;21.52;11.88;;;7.60;99.90;;;;;;5096196;28;20036;-65
2022/03/30 04:40:51;;;;;;;29.23;12.45;;;7.60;99.90;;;;;;5095228;28;20127;-63
2022/03/30 04:43:17;;;;;;;22.13;11.55;;;7.60;99.90;;;;;;5095278;28;20471;-63
2022/03/30 04:45:43;;;;;;;23.60;11.88;;;7.60;99.90;;;;;;5096437;28;20020;-64
2022/03/30 04:48:08;;;;;;;25.25;12.52;;;7.60;99.90;;;;;;5094846;28;20028;-63
2022/03/30 04:50:34;;;;;;;16.98;11.30;;;7.60;99.90;;;;;;5096069;28;20093;-63
2022/03/30 04:53:00;;;;;;;21.95;11.82;;;7.60;99.90;;;;;;5096016;28;20024;-63
2022/03/30 04:55:26;;;;;;;24.52;12.75;;;7.60;99.90;;;;;;5096102;28;20028;-63
2022/03/30 04:57:52;;;;;;;24.15;11.85;;;7.60;99.90;;;;;;5095844;28;20032;-63
2022/03/30 05:00:18;;;;;;;30.77;14.23;;;7.70;99.90;;;;;;5096236;28;20456;-64
2022/03/30 05:02:44;;;;;;;23.80;10.85;;;7.60;99.90;;;;;;5095881;28;20055;-63
2022/03/30 05:05:10;;;;;;;19.98;11.10;;;7.60;99.90;;;;;;5096013;28;20055;-64
2022/03/30 05:07:37;;;;;;;19.88;11.63;;;7.60;99.90;;;;;;5096020;28;20028;-64
2022/03/30 05:10:05;;;;;;;30.88;11.13;;;7.50;99.90;;;;;;5096025;28;20028;-64
2022/03/30 05:12:31;;;;;;;20.73;11.15;;;7.70;99.90;;;;;;5094977;28;20027;-63
2022/03/30 05:14:57;;;;;;;26.98;13.27;;;7.70;99.90;;;;;;5095558;28;20024;-63
2022/03/30 05:17:23;;;;;;;22.58;13.00;;;7.80;99.90;;;;;;5093994;28;20472;-63
2022/03/30 05:19:49;;;;;;;19.67;11.30;;;7.80;99.90;;;;;;5095456;28;20066;-63
2022/03/30 05:22:15;;;;;;;27.17;12.60;;;7.80;99.90;;;;;;5095437;28;20032;-63
2022/03/30 05:24:41;;;;;;;24.75;12.27;;;7.90;99.90;;;;;;5095550;28;20024;-63
2022/03/30 05:27:06;;;;;;;19.50;12.25;;;8.00;99.90;;;;;;5095113;28;20021;-63
2022/03/30 05:29:32;;;;;;;24.45;13.57;;;8.10;99.90;;;;;;5094375;28;20024;-63
2022/03/30 05:31:58;;;;;;;22.98;13.07;;;8.20;99.90;;;;;;5094353;28;20139;-63
2022/03/30 05:34:24;;;;;;;27.17;11.88;;;8.20;99.90;;;;;;5094162;28;20024;-63
2022/03/30 05:36:50;;;;;;;26.88;13.73;;;8.30;99.90;;;;;;5094011;28;20028;-63
2022/03/30 05:39:17;;;;;;;27.92;13.30;;;8.30;99.90;;;;;;5095192;28;20031;-64
2022/03/30 05:41:43;;;;;;;28.65;13.60;;;8.30;99.90;;;;;;5094887;28;20468;-63
2022/03/30 05:44:08;;;;;;;26.20;13.88;;;8.40;99.90;;;;;;5094440;28;20060;-63
2022/03/30 05:46:36;;;;;;;26.85;13.35;;;8.50;99.90;;;;;;5093658;28;20034;-64
2022/03/30 05:49:05;;;;;;;24.60;13.55;;;8.50;99.90;;;;;;5094681;28;20027;-63
2022/03/30 05:51:31;;;;;;;22.75;13.90;;;8.50;99.90;;;;;;5094935;28;20024;-63
2022/03/30 05:53:56;;;;;;;23.33;12.75;;;8.60;99.90;;;;;;5094631;28;20476;-63
2022/03/30 05:57:00;;;;;;;26.13;13.65;;;8.70;99.90;;;;;;5093528;28;20032;-63
2022/03/30 05:59:08;;;;;;;24.55;13.25;;;8.80;99.90;;;;;;5094306;28;20077;-63
2022/03/30 06:01:34;;;;;;;24.05;13.18;;;8.90;99.90;;;;;;5094887;28;20024;-63
2022/03/30 06:04:00;;;;;;;28.48;14.55;;;9.00;99.90;;;;;;5093595;28;20501;-64
2022/03/30 06:06:26;;;;;;;26.80;13.48;;;9.10;99.90;;;;;;5095198;28;20027;-63
2022/03/30 06:08:51;;;;;;;29.80;14.32;;;9.20;99.90;;;;;;5095045;28;20032;-65
2022/03/30 06:11:17;;;;;;;28.17;15.57;;;9.40;99.90;;;;;;5096353;28;20498;-65
2022/03/30 06:13:42;;;;;;;26.60;14.52;;;9.40;99.90;;;;;;5095849;28;20022;-67
2022/03/30 06:16:08;;;;;;;28.52;14.07;;;9.60;99.90;;;;;;5095161;28;20085;-63
2022/03/30 06:18:34;;;;;;;22.67;14.15;;;9.70;99.90;;;;;;5093448;28;20043;-63
2022/03/30 06:21:00;;;;;;;27.77;14.15;;;9.80;99.90;;;;;;5094149;28;20107;-64
2022/03/30 06:23:26;;;;;;;25.05;15.13;;;10.00;99.90;;;;;;5093086;28;20452;-64
2022/03/30 06:25:53;;;;;;;23.60;13.02;;;10.10;99.90;;;;;;5093320;28;20026;-63
2022/03/30 06:28:22;;;;;;;29.13;15.82;;;10.30;99.90;;;;;;5093045;28;20059;-63
2022/03/30 06:30:48;;;;;;;23.40;13.95;;;10.50;99.90;;;;;;5093926;28;20422;-64
2022/03/30 06:33:14;;;;;;;27.17;15.30;;;10.70;99.90;;;;;;5093861;28;20073;-64
2022/03/30 06:35:40;;;;;;;26.67;14.55;;;10.80;99.90;;;;;;5093981;28;20031;-64
2022/03/30 06:38:06;;;;;;;24.23;14.85;;;10.90;99.90;;;;;;5094098;28;20482;-64
2022/03/30 06:40:33;;;;;;;26.50;14.85;;;11.00;99.90;;;;;;5093010;28;20448;-64
2022/03/30 06:43:00;;;;;;;26.27;14.13;;;11.10;99.90;;;;;;5094250;28;20372;-64
2022/03/30 06:45:26;;;;;;;26.92;14.98;;;11.30;99.90;;;;;;5092903;28;20114;-64
2022/03/30 06:47:52;;;;;;;30.25;15.23;;;11.50;99.90;;;;;;5093676;28;20437;-65
2022/03/30 06:50:19;;;;;;;24.58;14.52;;;11.70;99.90;;;;;;5093876;28;20028;-64
2022/03/30 06:52:46;;;;;;;25.95;15.35;;;12.00;99.90;;;;;;5092660;28;20078;-64
2022/03/30 06:55:14;;;;;;;23.13;14.65;;;12.10;99.90;;;;;;5091573;28;20020;-64
2022/03/30 06:57:40;;;;;;;24.77;15.27;;;12.20;99.90;;;;;;5093787;28;20045;-64
2022/03/30 07:00:07;;;;;;;27.80;16.08;;;12.40;99.90;;;;;;5093936;28;20103;-64
2022/03/30 07:02:32;;;;;;;30.77;15.77;;;12.50;99.90;;;;;;5092772;28;20480;-64
2022/03/30 07:04:59;;;;;;;27.27;15.32;;;12.60;99.90;;;;;;5109698;28;20112;-63
2022/03/30 07:10:15;;;;;;;29.52;15.85;;;12.80;99.90;;;;;;5093615;28;20081;-64
2022/03/30 07:12:48;;;;;;;22.48;14.60;;;13.00;99.90;;;;;;5093448;28;20022;-63
2022/03/30 07:15:15;;;;;;;23.48;14.23;;;13.20;99.90;;;;;;5092191;28;20062;-64
2022/03/30 07:18:01;;;;;;;23.08;14.90;;;13.10;99.90;;;;;;5092347;28;20036;-64
2022/03/30 07:20:27;;;;;;;26.90;15.25;;;13.10;99.90;;;;;;5093542;28;20027;-64
2022/03/30 07:22:54;;;;;;;25.48;16.27;;;13.20;99.90;;;;;;5093562;28;20024;-64
2022/03/30 07:25:21;;;;;;;27.42;15.50;;;13.10;99.90;;;;;;5093639;28;20032;-64
2022/03/30 07:27:53;;;;;;;35.58;15.05;;;13.10;99.90;;;;;;5093556;28;20076;-65
2022/03/30 07:30:20;;;;;;;26.42;14.77;;;13.10;99.90;;;;;;5092332;28;20480;-64
2022/03/30 07:32:48;;;;;;;26.10;14.90;;;13.40;99.90;;;;;;5093567;28;20056;-64
2022/03/30 07:35:16;;;;;;;28.15;16.95;;;13.50;99.90;;;;;;5093340;28;20614;-64
2022/03/30 07:37:44;;;;;;;34.88;16.55;;;13.60;99.90;;;;;;5093167;28;20387;-64
2022/03/30 07:40:12;;;;;;;29.55;15.73;;;13.70;99.90;;;;;;5093122;28;20107;-64
2022/03/30 07:42:39;;;;;;;28.08;16.65;;;13.80;99.90;;;;;;5092153;28;20525;-64
2022/03/30 07:45:05;;;;;;;30.52;17.13;;;13.70;99.90;;;;;;5092118;28;20024;-64
2022/03/30 07:47:31;;;;;;;28.30;16.45;;;13.60;99.90;;;;;;5093166;28;20036;-64
2022/03/30 07:49:58;;;;;;;28.90;16.30;;;13.60;99.90;;;;;;5092195;28;20039;-64
2022/03/30 07:52:24;;;;;;;27.02;16.30;;;13.60;99.90;;;;;;5092048;28;20032;-64
2022/03/30 07:54:50;;;;;;;27.38;15.63;;;13.60;99.90;;;;;;5093197;28;20028;-64
2022/03/30 07:57:20;;;;;;;31.50;17.58;;;13.60;99.90;;;;;;5093630;28;20035;-64
2022/03/30 07:59:45;;;;;;;30.00;17.13;;;13.50;99.90;;;;;;5093270;28;20106;-65
2022/03/30 08:02:13;;;;;;;24.65;15.77;;;13.40;99.90;;;;;;5093369;28;20111;-65
2022/03/30 08:04:38;;;;;;;29.48;16.92;;;13.40;99.90;;;;;;5092294;28;20036;-64
2022/03/30 08:07:04;;;;;;;35.30;17.73;;;13.40;99.90;;;;;;5095944;28;20097;-64
2022/03/30 08:09:30;;;;;;;28.55;16.88;;;13.40;99.90;;;;;;5096843;28;20027;-64
2022/03/30 08:11:55;;;;;;;28.48;17.10;;;13.40;99.90;;;;;;5095433;28;20597;-64
2022/03/30 08:14:21;;;;;;;34.60;17.08;;;13.40;99.90;;;;;;5096475;28;20102;-64
2022/03/30 08:16:46;;;;;;;26.02;16.40;;;13.30;99.90;;;;;;5096653;28;20059;-64
2022/03/30 08:19:12;;;;;;;30.70;17.35;;;13.30;99.90;;;;;;5096603;28;20039;-64
2022/03/30 08:24:22;;;;;;;28.63;16.67;;;13.40;99.90;;;;;;5096740;28;20437;-64
2022/03/30 08:26:48;;;;;;;23.95;15.27;;;13.50;99.90;;;;;;5095147;28;20122;-64
2022/03/30 08:29:14;;;;;;;33.67;17.92;;;13.50;99.90;;;;;;5096824;28;20024;-64
2022/03/30 08:31:40;;;;;;;24.50;15.30;;;13.40;99.90;;;;;;5096415;28;20020;-64
2022/03/30 08:34:05;;;;;;;29.70;15.60;;;13.40;99.90;;;;;;5096376;28;20475;-64
2022/03/30 08:36:31;;;;;;;27.65;14.88;;;13.60;99.90;;;;;;5095751;28;20452;-64
2022/03/30 08:38:58;;;;;;;27.67;15.55;;;13.80;99.90;;;;;;5111916;28;20063;-64
2022/03/30 08:41:25;;;;;;;24.63;15.82;;;14.00;99.90;;;;;;5096250;28;20050;-64
2022/03/30 08:43:50;;;;;;;32.72;17.30;;;14.30;99.90;;;;;;5096152;28;20448;-64
2022/03/30 08:46:17;;;;;;;26.92;15.63;;;14.10;99.90;;;;;;5095911;28;20052;-65
2022/03/30 08:48:42;;;;;;;33.28;16.08;;;14.20;99.90;;;;;;5096230;28;20465;-64
2022/03/30 08:51:09;;;;;;;28.55;15.88;;;14.30;99.90;;;;;;5094908;28;20020;-65
2022/03/30 08:53:34;;;;;;;30.60;15.40;;;14.10;99.90;;;;;;5096349;28;20482;-64
2022/03/30 08:56:01;;;;;;;29.42;16.55;;;14.10;99.90;;;;;;5095880;28;20103;-64
2022/03/30 08:58:27;;;;;;;27.50;16.05;;;14.00;99.90;;;;;;5094741;28;20074;-64
2022/03/30 09:00:53;;;;;;;24.73;14.85;;;13.90;99.90;;;;;;5096124;28;20036;-64
2022/03/30 09:03:20;;;;;;;28.45;15.57;;;14.00;99.90;;;;;;5095789;28;20081;-64
2022/03/30 09:05:46;;;;;;;30.35;15.48;;;14.30;99.90;;;;;;5095785;28;20485;-64
2022/03/30 09:08:18;;;;;;;29.70;16.00;;;14.90;99.00;;;;;;5095420;28;20098;-64
2022/03/30 09:10:47;;;;;;;28.05;16.10;;;15.20;97.90;;;;;;5095958;28;20020;-64
2022/03/30 09:13:14;;;;;;;31.38;16.33;;;15.30;97.00;;;;;;5094322;28;20020;-64
2022/03/30 09:15:41;;;;;;;26.15;15.40;;;15.40;96.40;;;;;;5094135;28;20056;-65
2022/03/30 09:18:09;;;;;;;27.30;16.30;;;15.50;96.50;;;;;;5094726;28;20036;-64
2022/03/30 09:20:40;;;;;;;24.03;15.57;;;15.50;96.50;;;;;;5094388;28;20084;-64
2022/03/30 09:23:09;;;;;;;26.42;16.38;;;15.60;96.50;;;;;;5094330;28;20028;-65
2022/03/30 09:25:35;;;;;;;26.88;15.88;;;15.90;96.10;;;;;;5095791;28;20024;-65
2022/03/30 09:28:02;;;;;;;27.98;16.73;;;16.20;95.10;;;;;;5095462;28;20121;-65
2022/03/30 09:30:29;;;;;;;29.23;16.20;;;16.40;94.60;;;;;;5094150;28;20464;-64
2022/03/30 09:32:58;;;;;;;30.42;17.33;;;16.60;93.80;;;;;;5095933;28;20034;-65
2022/03/30 09:35:34;;;;;;;25.10;16.88;;;16.50;93.90;;;;;;5094124;28;20028;-64
2022/03/30 09:38:08;;;;;;;25.08;15.98;;;16.30;93.80;;;;;;5094147;28;20040;-65
2022/03/30 09:40:47;;;;;;;30.02;18.00;;;16.30;93.90;;;;;;5094677;28;20123;-64
2022/03/30 09:43:19;;;;;;;28.73;16.98;;;16.20;94.10;;;;;;5095314;28;20024;-64
2022/03/30 09:45:47;;;;;;;27.08;16.27;;;16.10;94.30;;;;;;5094141;28;20452;-64
2022/03/30 09:48:24;;;;;;;25.48;16.05;;;16.20;94.20;;;;;;5094978;28;20035;-64
2022/03/30 09:50:52;;;;;;;26.90;17.00;;;16.10;94.20;;;;;;5093946;28;20028;-64
2022/03/30 09:53:21;;;;;;;30.67;17.17;;;16.00;94.50;;;;;;5094031;28;20376;-64
2022/03/30 09:55:55;;;;;;;28.05;16.63;;;15.90;94.60;;;;;;5094880;28;20099;-64
2022/03/30 09:58:21;;;;;;;28.95;17.67;;;15.80;94.90;;;;;;5094731;28;20526;-64
2022/03/30 10:01:03;;;;;;;25.60;15.82;;;15.80;94.90;;;;;;5094754;28;20126;-64
2022/03/30 10:03:42;;;;;;;30.45;17.27;;;15.60;95.10;;;;;;5093341;28;20539;-64
2022/03/30 10:06:09;;;;;;;29.65;16.77;;;15.70;95.60;;;;;;5093724;28;20387;-64
2022/03/30 10:08:35;;;;;;;27.80;16.83;;;15.80;95.50;;;;;;5094534;28;20036;-64
2022/03/30 10:11:02;;;;;;;27.08;15.35;;;15.30;96.10;;;;;;5094547;28;20032;-64
2022/03/30 10:13:28;;;;;;;31.45;16.38;;;15.50;96.50;;;;;;5093657;28;20024;-64
2022/03/30 10:15:54;;;;;;;27.83;15.57;;;15.60;95.80;;;;;;5094533;28;20093;-64
2022/03/30 10:18:20;;;;;;;28.95;15.07;;;15.60;96.10;;;;;;5094297;28;20035;-64
2022/03/30 10:21:01;;;;;;;30.10;17.02;;;15.70;95.60;;;;;;5094570;28;20031;-64
2022/03/30 10:23:51;;;;;;;27.05;15.82;;;15.80;95.90;;;;;;5093469;28;20081;-64
2022/03/30 10:26:34;;;;;;;32.53;17.35;;;15.80;95.70;;;;;;5094826;28;20020;-64
2022/03/30 10:29:11;;;;;;;25.05;16.20;;;15.90;95.50;;;;;;5092987;28;20092;-64
2022/03/30 10:31:38;;;;;;;30.48;15.75;;;15.80;95.50;;;;;;5094790;28;20078;-64
2022/03/30 10:34:26;;;;;;;22.02;15.38;;;15.70;95.70;;;;;;5092996;28;20430;-64
2022/03/30 10:37:08;;;;;;;30.15;16.63;;;15.70;95.90;;;;;;5092958;28;20114;-64
2022/03/30 10:39:35;;;;;;;26.80;15.77;;;15.70;95.70;;;;;;5093405;28;20078;-65
2022/03/30 10:42:09;;;;;;;22.27;15.82;;;15.80;95.80;;;;;;5093517;28;20396;-64
2022/03/30 10:44:44;;;;;;;31.40;17.15;;;15.80;95.60;;;;;;5092720;28;20122;-64
2022/03/30 10:47:20;;;;;;;26.63;15.23;;;16.00;95.40;;;;;;5092485;28;20107;-64
2022/03/30 10:49:54;;;;;;;36.90;17.45;;;16.20;95.00;;;;;;5093946;28;20130;-64
2022/03/30 10:52:38;;;;;;;32.97;15.15;;;16.30;94.90;;;;;;5094046;28;20035;-65
2022/03/30 10:55:13;;;;;;;24.90;15.65;;;16.20;94.60;;;;;;5093991;28;20097;-64
2022/03/30 10:58:03;;;;;;;26.42;15.57;;;16.20;94.50;;;;;;5092564;28;20032;-64
2022/03/30 11:00:39;;;;;;;23.55;14.27;;;16.30;94.30;;;;;;5093186;28;20028;-64
2022/03/30 11:03:12;;;;;;;24.90;16.02;;;16.60;93.80;;;;;;5094037;28;20024;-64
2022/03/30 11:05:39;;;;;;;23.17;14.77;;;16.50;93.70;;;;;;5093960;28;20020;-65
2022/03/30 11:08:06;;;;;;;22.80;14.80;;;16.70;93.70;;;;;;5094057;28;20039;-64
2022/03/30 11:10:47;;;;;;;24.73;15.43;;;16.90;93.10;;;;;;5097188;28;20024;-65
2022/03/30 11:13:22;;;;;;;27.80;15.70;;;16.80;92.30;;;;;;5095346;28;20491;-64
2022/03/30 11:15:59;;;;;;;25.60;14.85;;;16.40;93.10;;;;;;5095348;28;20079;-68
2022/03/30 11:18:27;;;;;;;24.42;14.85;;;16.70;93.00;;;;;;5095982;28;20115;-65
2022/03/30 11:21:18;;;;;;;24.85;14.68;;;17.00;92.40;;;;;;5096050;28;20028;-64
2022/03/30 11:23:52;;;;;;;23.85;14.73;;;17.10;91.70;;;;;;5094760;28;20016;-64
2022/03/30 11:26:18;;;;;;;27.65;15.75;;;17.10;91.10;;;;;;5092156;28;20085;-64
2022/03/30 11:28:44;;;;;;;25.60;14.43;;;17.50;90.70;;;;;;5092500;28;20027;-64
2022/03/30 11:31:20;;;;;;;24.58;14.43;;;18.00;89.20;;;;;;5091619;28;20124;-64
2022/03/30 11:34:22;;;;;;;27.75;16.05;;;18.70;84.60;;;;;;5092370;28;20032;-65
2022/03/30 11:36:48;;;;;;;25.15;14.75;;;19.20;80.10;;;;;;5093557;28;20422;-65
2022/03/30 11:39:20;;;;;;;23.55;15.20;;;19.40;77.20;;;;;;5093508;28;20028;-64
2022/03/30 11:41:57;;;;;;;23.15;14.45;;;19.10;74.10;;;;;;5095694;28;20039;-64
2022/03/30 11:47:13;;;;;;;20.90;13.93;;;18.60;78.00;;;;;;5096999;28;20035;-64
2022/03/30 11:49:52;;;;;;;18.77;13.43;;;19.00;74.30;;;;;;5095745;28;20024;-65
2022/03/30 11:52:19;;;;;;;20.35;14.70;;;19.40;73.60;;;;;;5096927;28;20024;-65
2022/03/30 11:54:53;;;;;;;24.15;13.85;;;19.10;71.50;;;;;;5095285;28;20032;-64
2022/03/30 11:57:20;;;;;;;25.77;13.73;;;18.20;75.10;;;;;;5096675;28;20468;-64
2022/03/30 12:00:09;;;;;;;23.70;14.20;;;18.10;75.80;;;;;;5095707;28;20039;-64
2022/03/30 12:02:37;;;;;;;22.33;13.60;;;17.80;77.10;;;;;;5096777;28;20494;-64
2022/03/30 12:05:03;;;;;;;19.42;12.63;;;17.20;80.40;;;;;;5095604;28;20024;-64
2022/03/30 12:07:34;;;;;;;20.33;13.25;;;17.30;81.30;;;;;;5096938;28;20167;-64
2022/03/30 12:10:02;;;;;;;20.92;12.98;;;17.40;81.50;;;;;;5096980;28;20020;-64
2022/03/30 12:12:30;;;;;;;23.70;14.20;;;17.30;81.40;;;;;;5096531;28;20031;-64
2022/03/30 12:15:00;;;;;;;19.10;12.57;;;17.40;80.80;;;;;;5096827;28;20345;-64
2022/03/30 12:17:27;;;;;;;23.77;12.50;;;17.30;81.50;;;;;;5097017;28;20324;-64
2022/03/30 12:19:53;;;;;;;17.70;12.30;;;17.60;81.40;;;;;;5095523;28;20102;-65
2022/03/30 12:22:20;;;;;;;17.40;11.73;;;17.70;79.70;;;;;;5096600;28;20028;-65
2022/03/30 12:24:46;;;;;;;21.58;12.10;;;17.70;79.30;;;;;;5095707;28;20025;-64
2022/03/30 12:27:12;;;;;;;20.00;12.30;;;17.70;79.40;;;;;;5095843;28;20088;-64
2022/03/30 12:29:39;;;;;;;21.73;13.23;;;17.80;79.00;;;;;;5096695;28;20020;-65
2022/03/30 12:32:24;;;;;;;20.75;12.00;;;18.00;77.90;;;;;;5097463;28;20024;-65
2022/03/30 12:35:12;;;;;;;16.85;11.70;;;18.30;76.30;;;;;;5097205;28;20031;-64
2022/03/30 12:37:38;;;;;;;23.00;12.10;;;18.50;76.20;;;;;;5097184;28;20073;-65
2022/03/30 12:40:17;;;;;;;16.15;10.55;;;18.40;74.20;;;;;;5095478;28;20035;-64
2022/03/30 12:42:44;;;;;;;16.57;10.90;;;18.20;74.50;;;;;;5096345;28;20031;-64
2022/03/30 12:45:12;;;;;;;16.50;10.77;;;18.10;74.20;;;;;;5096181;28;20350;-64
2022/03/30 12:48:02;;;;;;;18.60;10.50;;;18.20;74.00;;;;;;5096206;28;20157;-65
2022/03/30 12:50:33;;;;;;;14.60;9.70;;;18.40;72.50;;;;;;5095906;28;20020;-64